sensor_id;sensor_type;location;lat;lon;timestamp;pressure;altitude;pressure_sealevel;temperature;humidity
54816;BME280;40715;55.752;37.884;2023-12-04T00:01:28;97685.13;;;28.34;28.24
54816;BME280;40715;55.752;37.884;2023-12-04T00:03:55;97686.34;;;28.32;28.51
54816;BME280;40715;55.752;37.884;2023-12-04T00:06:23;97695.06;;;28.27;28.45
54816;BME280;40715;55.752;37.884;2023-12-04T00:08:50;97697.56;;;28.29;28.41
54816;BME280;40715;55.752;37.884;2023-12-04T00:11:17;97686.75;;;28.29;28.37
54816;BME280;40715;55.752;37.884;2023-12-04T00:13:44;97697.38;;;28.30;28.43
54816;BME280;40715;55.752;37.884;2023-12-04T00:16:11;97693.03;;;28.29;28.37
54816;BME280;40715;55.752;37.884;2023-12-04T00:18:38;97699.31;;;28.36;28.29
54816;BME280;40715;55.752;37.884;2023-12-04T00:21:05;97703.13;;;28.42;28.14
54816;BME280;40715;55.752;37.884;2023-12-04T00:23:32;97712.16;;;28.49;28.04
54816;BME280;40715;55.752;37.884;2023-12-04T00:25:59;97703.81;;;28.51;27.95
54816;BME280;40715;55.752;37.884;2023-12-04T00:28:26;97709.66;;;28.54;27.96
54816;BME280;40715;55.752;37.884;2023-12-04T00:30:55;97718.25;;;28.58;27.84
54816;BME280;40715;55.752;37.884;2023-12-04T00:33:22;97714.53;;;28.59;27.78
54816;BME280;40715;55.752;37.884;2023-12-04T00:35:49;97722.66;;;28.59;27.73
54816;BME280;40715;55.752;37.884;2023-12-04T00:38:16;97719.75;;;28.61;27.76
54816;BME280;40715;55.752;37.884;2023-12-04T00:40:43;97734.09;;;28.61;27.55
54816;BME280;40715;55.752;37.884;2023-12-04T00:43:10;97736.81;;;28.61;27.54
54816;BME280;40715;55.752;37.884;2023-12-04T00:45:37;97737.00;;;28.59;27.69
54816;BME280;40715;55.752;37.884;2023-12-04T00:48:04;97734.72;;;28.56;27.64
54816;BME280;40715;55.752;37.884;2023-12-04T00:50:31;97732.19;;;28.55;27.40
54816;BME280;40715;55.752;37.884;2023-12-04T00:52:58;97731.72;;;28.51;27.45
54816;BME280;40715;55.752;37.884;2023-12-04T00:55:25;97743.66;;;28.57;27.48
54816;BME280;40715;55.752;37.884;2023-12-04T00:57:52;97741.34;;;28.54;27.23
54816;BME280;40715;55.752;37.884;2023-12-04T01:00:19;97748.66;;;28.53;27.27
54816;BME280;40715;55.752;37.884;2023-12-04T01:02:46;97748.84;;;28.52;27.38
54816;BME280;40715;55.752;37.884;2023-12-04T01:05:13;97744.44;;;28.51;27.13
54816;BME280;40715;55.752;37.884;2023-12-04T01:07:40;97750.06;;;28.49;27.17
54816;BME280;40715;55.752;37.884;2023-12-04T01:10:07;97752.31;;;28.46;27.23
54816;BME280;40715;55.752;37.884;2023-12-04T01:12:34;97757.72;;;28.46;27.03
54816;BME280;40715;55.752;37.884;2023-12-04T01:15:02;97752.50;;;28.44;26.98
54816;BME280;40715;55.752;37.884;2023-12-04T01:17:32;97754.38;;;28.44;27.00
54816;BME280;40715;55.752;37.884;2023-12-04T01:19:59;97754.97;;;28.39;26.92
54816;BME280;40715;55.752;37.884;2023-12-04T01:22:26;97763.94;;;28.39;27.11
54816;BME280;40715;55.752;37.884;2023-12-04T01:24:53;97755.16;;;28.37;26.96
54816;BME280;40715;55.752;37.884;2023-12-04T01:27:20;97773.28;;;28.37;26.95
54816;BME280;40715;55.752;37.884;2023-12-04T01:29:47;97773.66;;;28.34;26.94
54816;BME280;40715;55.752;37.884;2023-12-04T01:32:14;97784.69;;;28.32;26.95
54816;BME280;40715;55.752;37.884;2023-12-04T01:34:41;97783.84;;;28.32;26.80
54816;BME280;40715;55.752;37.884;2023-12-04T01:37:08;97788.00;;;28.28;26.96
54816;BME280;40715;55.752;37.884;2023-12-04T01:39:35;97793.22;;;28.29;26.92
54816;BME280;40715;55.752;37.884;2023-12-04T01:42:03;97786.94;;;28.29;26.92
54816;BME280;40715;55.752;37.884;2023-12-04T01:44:30;97794.50;;;28.33;26.69
54816;BME280;40715;55.752;37.884;2023-12-04T01:46:57;97795.78;;;28.37;26.64
54816;BME280;40715;55.752;37.884;2023-12-04T01:49:24;97783.72;;;28.40;26.72
54816;BME280;40715;55.752;37.884;2023-12-04T01:51:51;97790.22;;;28.46;26.51
54816;BME280;40715;55.752;37.884;2023-12-04T01:54:18;97786.31;;;28.48;26.52
54816;BME280;40715;55.752;37.884;2023-12-04T01:56:46;97786.38;;;28.55;26.27
54816;BME280;40715;55.752;37.884;2023-12-04T01:59:13;97787.47;;;28.61;26.38
54816;BME280;40715;55.752;37.884;2023-12-04T02:01:40;97789.31;;;28.60;26.36
54816;BME280;40715;55.752;37.884;2023-12-04T02:04:08;97785.78;;;28.59;26.41
54816;BME280;40715;55.752;37.884;2023-12-04T02:06:35;97791.66;;;28.63;26.20
54816;BME280;40715;55.752;37.884;2023-12-04T02:09:02;97796.91;;;28.65;26.39
54816;BME280;40715;55.752;37.884;2023-12-04T02:11:29;97804.38;;;28.63;26.06
54816;BME280;40715;55.752;37.884;2023-12-04T02:13:56;97804.38;;;28.63;26.16
54816;BME280;40715;55.752;37.884;2023-12-04T02:16:26;97802.69;;;28.62;25.93
54816;BME280;40715;55.752;37.884;2023-12-04T02:18:54;97797.00;;;28.56;26.14
54816;BME280;40715;55.752;37.884;2023-12-04T02:21:21;97814.09;;;28.57;25.86
54816;BME280;40715;55.752;37.884;2023-12-04T02:23:50;97816.81;;;28.57;26.05
54816;BME280;40715;55.752;37.884;2023-12-04T02:26:20;97820.38;;;28.57;26.04
54816;BME280;40715;55.752;37.884;2023-12-04T02:28:52;97823.63;;;28.53;25.95
54816;BME280;40715;55.752;37.884;2023-12-04T02:31:22;97821.13;;;28.51;26.02
54816;BME280;40715;55.752;37.884;2023-12-04T02:33:52;97817.59;;;28.51;25.80
54816;BME280;40715;55.752;37.884;2023-12-04T02:36:24;97820.28;;;28.51;25.87
54816;BME280;40715;55.752;37.884;2023-12-04T02:38:52;97823.81;;;28.51;25.72
54816;BME280;40715;55.752;37.884;2023-12-04T02:41:19;97828.63;;;28.49;25.73
54816;BME280;40715;55.752;37.884;2023-12-04T02:43:46;97829.84;;;28.47;25.70
54816;BME280;40715;55.752;37.884;2023-12-04T02:46:13;97842.56;;;28.46;25.71
54816;BME280;40715;55.752;37.884;2023-12-04T02:48:40;97831.72;;;28.46;25.57
54816;BME280;40715;55.752;37.884;2023-12-04T02:51:07;97838.16;;;28.45;25.79
54816;BME280;40715;55.752;37.884;2023-12-04T02:53:34;97837.13;;;28.46;25.87
54816;BME280;40715;55.752;37.884;2023-12-04T02:56:01;97841.06;;;28.44;25.95
54816;BME280;40715;55.752;37.884;2023-12-04T02:58:28;97836.47;;;28.44;26.03
54816;BME280;40715;55.752;37.884;2023-12-04T03:00:55;97852.72;;;28.44;26.16
54816;BME280;40715;55.752;37.884;2023-12-04T03:03:22;97853.38;;;28.46;26.01
54816;BME280;40715;55.752;37.884;2023-12-04T03:05:48;97853.75;;;28.43;26.02
54816;BME280;40715;55.752;37.884;2023-12-04T03:08:16;97852.28;;;28.40;26.11
54816;BME280;40715;55.752;37.884;2023-12-04T03:10:42;97861.03;;;28.42;26.04
54816;BME280;40715;55.752;37.884;2023-12-04T03:13:09;97861.03;;;28.42;25.96
54816;BME280;40715;55.752;37.884;2023-12-04T03:15:36;97867.47;;;28.41;26.03
54816;BME280;40715;55.752;37.884;2023-12-04T03:18:03;97859.34;;;28.41;25.82
54816;BME280;40715;55.752;37.884;2023-12-04T03:20:32;97872.25;;;28.39;25.89
54816;BME280;40715;55.752;37.884;2023-12-04T03:22:59;97878.69;;;28.38;25.74
54816;BME280;40715;55.752;37.884;2023-12-04T03:25:26;97890.00;;;28.42;25.63
54816;BME280;40715;55.752;37.884;2023-12-04T03:27:53;97892.72;;;28.42;25.72
54816;BME280;40715;55.752;37.884;2023-12-04T03:30:20;97901.66;;;28.42;25.68
54816;BME280;40715;55.752;37.884;2023-12-04T03:32:47;97909.59;;;28.44;25.56
54816;BME280;40715;55.752;37.884;2023-12-04T03:35:14;97914.81;;;28.46;25.49
54816;BME280;40715;55.752;37.884;2023-12-04T03:37:41;97915.69;;;28.46;25.42
54816;BME280;40715;55.752;37.884;2023-12-04T03:40:09;97928.38;;;28.46;25.30
54816;BME280;40715;55.752;37.884;2023-12-04T03:42:36;97930.88;;;28.47;25.40
54816;BME280;40715;55.752;37.884;2023-12-04T03:45:03;97942.38;;;28.49;25.36
54816;BME280;40715;55.752;37.884;2023-12-04T03:47:31;97948.63;;;28.50;25.29
54816;BME280;40715;55.752;37.884;2023-12-04T03:49:58;97951.63;;;28.55;25.14
54816;BME280;40715;55.752;37.884;2023-12-04T03:52:25;97966.00;;;28.55;25.28
54816;BME280;40715;55.752;37.884;2023-12-04T03:54:52;97966.00;;;28.55;25.14
54816;BME280;40715;55.752;37.884;2023-12-04T03:57:19;97962.25;;;28.56;25.19
54816;BME280;40715;55.752;37.884;2023-12-04T03:59:46;97972.06;;;28.57;25.36
54816;BME280;40715;55.752;37.884;2023-12-04T04:02:13;97977.66;;;28.56;25.23
54816;BME280;40715;55.752;37.884;2023-12-04T04:04:40;97982.25;;;28.55;25.35
54816;BME280;40715;55.752;37.884;2023-12-04T04:07:09;97994.97;;;28.55;25.20
54816;BME280;40715;55.752;37.884;2023-12-04T04:09:36;97994.38;;;28.59;25.11
54816;BME280;40715;55.752;37.884;2023-12-04T04:12:04;97998.13;;;28.58;25.13
54816;BME280;40715;55.752;37.884;2023-12-04T04:14:31;97997.47;;;28.56;25.16
54816;BME280;40715;55.752;37.884;2023-12-04T04:16:58;98006.19;;;28.52;24.92
54816;BME280;40715;55.752;37.884;2023-12-04T04:19:25;98022.59;;;28.50;25.17
54816;BME280;40715;55.752;37.884;2023-12-04T04:21:52;98023.66;;;28.49;24.94
54816;BME280;40715;55.752;37.884;2023-12-04T04:24:20;98028.59;;;28.46;25.02
54816;BME280;40715;55.752;37.884;2023-12-04T04:26:47;98028.78;;;28.44;24.95
54816;BME280;40715;55.752;37.884;2023-12-04T04:29:14;98032.06;;;28.39;25.04
54816;BME280;40715;55.752;37.884;2023-12-04T04:31:41;98042.06;;;28.39;25.03
54816;BME280;40715;55.752;37.884;2023-12-04T04:34:08;98051.19;;;28.38;25.05
54816;BME280;40715;55.752;37.884;2023-12-04T04:36:35;98048.00;;;28.34;25.06
54816;BME280;40715;55.752;37.884;2023-12-04T04:39:02;98044.47;;;28.34;25.00
54816;BME280;40715;55.752;37.884;2023-12-04T04:41:29;98045.69;;;28.31;25.29
54816;BME280;40715;55.752;37.884;2023-12-04T04:43:56;98046.34;;;28.33;25.12
54816;BME280;40715;55.752;37.884;2023-12-04T04:46:23;98049.41;;;28.30;25.40
54816;BME280;40715;55.752;37.884;2023-12-04T04:48:52;98049.06;;;28.33;25.42
54816;BME280;40715;55.752;37.884;2023-12-04T04:51:19;98055.31;;;28.34;25.67
54816;BME280;40715;55.752;37.884;2023-12-04T04:53:46;98055.31;;;28.34;25.44
54816;BME280;40715;55.752;37.884;2023-12-04T04:56:13;98055.75;;;28.37;25.39
54816;BME280;40715;55.752;37.884;2023-12-04T04:58:40;98066.25;;;28.40;25.45
54816;BME280;40715;55.752;37.884;2023-12-04T05:01:08;98061.47;;;28.42;25.36
54816;BME280;40715;55.752;37.884;2023-12-04T05:03:35;98061.75;;;28.48;25.33
54816;BME280;40715;55.752;37.884;2023-12-04T05:06:03;98066.78;;;28.51;25.41
54816;BME280;40715;55.752;37.884;2023-12-04T05:08:32;98066.91;;;28.57;25.53
54816;BME280;40715;55.752;37.884;2023-12-04T05:10:59;98075.31;;;28.63;25.64
54816;BME280;40715;55.752;37.884;2023-12-04T05:13:26;98087.28;;;28.68;25.62
54816;BME280;40715;55.752;37.884;2023-12-04T05:15:53;98090.66;;;28.70;25.63
54816;BME280;40715;55.752;37.884;2023-12-04T05:18:20;98084.00;;;28.73;25.52
54816;BME280;40715;55.752;37.884;2023-12-04T05:20:47;98102.59;;;28.76;25.34
54816;BME280;40715;55.752;37.884;2023-12-04T05:23:14;98098.22;;;28.75;25.34
54816;BME280;40715;55.752;37.884;2023-12-04T05:25:41;98094.84;;;28.73;25.52
54816;BME280;40715;55.752;37.884;2023-12-04T05:28:10;98107.34;;;28.74;25.38
54816;BME280;40715;55.752;37.884;2023-12-04T05:30:38;98109.44;;;28.72;25.50
54816;BME280;40715;55.752;37.884;2023-12-04T05:33:04;98113.81;;;28.73;25.36
54816;BME280;40715;55.752;37.884;2023-12-04T05:35:31;98121.09;;;28.72;25.49
54816;BME280;40715;55.752;37.884;2023-12-04T05:38:00;98118.19;;;28.74;25.65
54816;BME280;40715;55.752;37.884;2023-12-04T05:40:27;98118.38;;;28.72;25.72
54816;BME280;40715;55.752;37.884;2023-12-04T05:42:54;98117.19;;;28.75;25.85
54816;BME280;40715;55.752;37.884;2023-12-04T05:45:21;98123.81;;;28.72;26.04
54816;BME280;40715;55.752;37.884;2023-12-04T05:47:48;98121.09;;;28.72;25.81
54816;BME280;40715;55.752;37.884;2023-12-04T05:50:15;98124.19;;;28.69;26.11
54816;BME280;40715;55.752;37.884;2023-12-04T05:52:42;98137.56;;;28.71;26.08
54816;BME280;40715;55.752;37.884;2023-12-04T05:55:10;98141.28;;;28.70;26.33
54816;BME280;40715;55.752;37.884;2023-12-04T05:57:39;98141.28;;;28.70;26.25
54816;BME280;40715;55.752;37.884;2023-12-04T06:00:07;98145.00;;;28.69;26.05
54816;BME280;40715;55.752;37.884;2023-12-04T06:02:43;98158.41;;;28.70;26.25
54816;BME280;40715;55.752;37.884;2023-12-04T06:05:11;98162.75;;;28.71;26.22
54816;BME280;40715;55.752;37.884;2023-12-04T06:07:38;98165.56;;;28.63;26.10
54816;BME280;40715;55.752;37.884;2023-12-04T06:10:06;98178.56;;;28.68;26.04
54816;BME280;40715;55.752;37.884;2023-12-04T06:12:33;98174.38;;;28.65;26.12
54816;BME280;40715;55.752;37.884;2023-12-04T06:15:00;98180.41;;;28.67;26.03
54816;BME280;40715;55.752;37.884;2023-12-04T06:17:32;98173.34;;;28.66;25.98
54816;BME280;40715;55.752;37.884;2023-12-04T06:19:59;98182.31;;;28.67;25.96
54816;BME280;40715;55.752;37.884;2023-12-04T06:22:30;98188.94;;;28.64;25.92
54816;BME280;40715;55.752;37.884;2023-12-04T06:24:57;98191.00;;;28.62;25.84
54816;BME280;40715;55.752;37.884;2023-12-04T06:27:24;98191.97;;;28.61;25.90
54816;BME280;40715;55.752;37.884;2023-12-04T06:29:51;98193.84;;;28.61;25.76
54816;BME280;40715;55.752;37.884;2023-12-04T06:32:19;98201.31;;;28.58;25.78
54816;BME280;40715;55.752;37.884;2023-12-04T06:34:47;98196.75;;;28.59;25.51
54816;BME280;40715;55.752;37.884;2023-12-04T06:37:15;98195.44;;;28.55;25.59
54816;BME280;40715;55.752;37.884;2023-12-04T06:39:44;98203.00;;;28.59;25.53
54816;BME280;40715;55.752;37.884;2023-12-04T06:42:12;98204.53;;;28.62;25.33
54816;BME280;40715;55.752;37.884;2023-12-04T06:44:39;98212.47;;;28.64;25.25
54816;BME280;40715;55.752;37.884;2023-12-04T06:47:08;98214.00;;;28.66;25.04
54816;BME280;40715;55.752;37.884;2023-12-04T06:49:35;98207.19;;;28.70;24.99
54816;BME280;40715;55.752;37.884;2023-12-04T06:52:03;98208.47;;;28.74;24.84
54816;BME280;40715;55.752;37.884;2023-12-04T06:54:30;98215.88;;;28.81;24.59
54816;BME280;40715;55.752;37.884;2023-12-04T06:56:57;98224.81;;;28.81;24.75
54816;BME280;40715;55.752;37.884;2023-12-04T06:59:24;98216.50;;;28.83;24.67
54816;BME280;40715;55.752;37.884;2023-12-04T07:01:51;98225.50;;;28.83;24.58
54816;BME280;40715;55.752;37.884;2023-12-04T07:04:18;98221.94;;;28.83;24.48
54816;BME280;40715;55.752;37.884;2023-12-04T07:06:48;98230.06;;;28.83;24.34
54816;BME280;40715;55.752;37.884;2023-12-04T07:09:17;98241.56;;;28.85;24.25
54816;BME280;40715;55.752;37.884;2023-12-04T07:11:44;98244.28;;;28.85;24.16
54816;BME280;40715;55.752;37.884;2023-12-04T07:14:11;98253.25;;;28.85;23.97
54816;BME280;40715;55.752;37.884;2023-12-04T07:16:42;98252.41;;;28.85;24.14
54816;BME280;40715;55.752;37.884;2023-12-04T07:19:10;98265.09;;;28.84;24.05
54816;BME280;40715;55.752;37.884;2023-12-04T07:21:38;98258.03;;;28.83;23.79
54816;BME280;40715;55.752;37.884;2023-12-04T07:24:06;98268.88;;;28.83;23.70
54816;BME280;40715;55.752;37.884;2023-12-04T07:26:34;98278.03;;;28.82;23.59
54816;BME280;40715;55.752;37.884;2023-12-04T07:29:02;98270.25;;;28.79;23.66
54816;BME280;40715;55.752;37.884;2023-12-04T07:31:30;98281.94;;;28.80;23.69
54816;BME280;40715;55.752;37.884;2023-12-04T07:33:56;98289.41;;;28.78;23.43
54816;BME280;40715;55.752;37.884;2023-12-04T07:36:24;98303.63;;;28.80;23.42
54816;BME280;40715;55.752;37.884;2023-12-04T07:38:51;98289.22;;;28.79;23.36
54816;BME280;40715;55.752;37.884;2023-12-04T07:41:21;98295.84;;;28.77;23.31
54816;BME280;40715;55.752;37.884;2023-12-04T07:43:48;98298.56;;;28.77;23.23
54816;BME280;40715;55.752;37.884;2023-12-04T07:46:15;98305.19;;;28.74;23.01
54816;BME280;40715;55.752;37.884;2023-12-04T07:48:43;98315.19;;;28.73;23.04
54816;BME280;40715;55.752;37.884;2023-12-04T07:51:13;98310.59;;;28.74;22.93
54816;BME280;40715;55.752;37.884;2023-12-04T07:53:40;98312.50;;;28.73;23.00
54816;BME280;40715;55.752;37.884;2023-12-04T07:56:07;98327.88;;;28.73;22.80
54816;BME280;40715;55.752;37.884;2023-12-04T07:58:34;98321.00;;;28.70;23.01
54816;BME280;40715;55.752;37.884;2023-12-04T08:01:01;98329.13;;;28.70;22.78
54816;BME280;40715;55.752;37.884;2023-12-04T08:03:28;98331.97;;;28.69;22.55
54816;BME280;40715;55.752;37.884;2023-12-04T08:05:55;98333.84;;;28.68;22.63
54816;BME280;40715;55.752;37.884;2023-12-04T08:08:22;98320.50;;;28.67;22.66
54816;BME280;40715;55.752;37.884;2023-12-04T08:10:49;98331.16;;;28.68;22.66
54816;BME280;40715;55.752;37.884;2023-12-04T08:13:16;98325.91;;;28.67;22.42
54816;BME280;40715;55.752;37.884;2023-12-04T08:15:43;98332.84;;;28.69;22.53
54816;BME280;40715;55.752;37.884;2023-12-04T08:18:11;98328.06;;;28.71;22.35
54816;BME280;40715;55.752;37.884;2023-12-04T08:20:38;98348.56;;;28.74;22.23
54816;BME280;40715;55.752;37.884;2023-12-04T08:23:06;98340.06;;;28.77;22.19
54816;BME280;40715;55.752;37.884;2023-12-04T08:25:33;98344.91;;;28.82;22.10
54816;BME280;40715;55.752;37.884;2023-12-04T08:28:00;98353.53;;;28.85;22.10
54816;BME280;40715;55.752;37.884;2023-12-04T08:30:27;98353.16;;;28.88;21.96
54816;BME280;40715;55.752;37.884;2023-12-04T08:32:54;98359.44;;;28.89;22.08
54816;BME280;40715;55.752;37.884;2023-12-04T08:35:21;98361.31;;;28.88;21.87
54816;BME280;40715;55.752;37.884;2023-12-04T08:37:48;98357.75;;;28.88;21.84
54816;BME280;40715;55.752;37.884;2023-12-04T08:40:16;98364.00;;;28.88;21.63
54816;BME280;40715;55.752;37.884;2023-12-04T08:42:43;98373.00;;;28.89;21.81
54816;BME280;40715;55.752;37.884;2023-12-04T08:45:11;98373.00;;;28.89;21.55
54816;BME280;40715;55.752;37.884;2023-12-04T08:47:39;98379.44;;;28.88;21.59
54816;BME280;40715;55.752;37.884;2023-12-04T08:50:06;98367.75;;;28.87;21.41
54816;BME280;40715;55.752;37.884;2023-12-04T08:52:33;98374.84;;;28.88;21.54
54816;BME280;40715;55.752;37.884;2023-12-04T08:55:00;98386.06;;;28.85;21.46
54816;BME280;40715;55.752;37.884;2023-12-04T08:57:30;98372.50;;;28.85;21.40
54816;BME280;40715;55.752;37.884;2023-12-04T08:59:57;98373.53;;;28.84;21.46
54816;BME280;40715;55.752;37.884;2023-12-04T09:02:24;98377.09;;;28.85;21.24
54816;BME280;40715;55.752;37.884;2023-12-04T09:04:51;98397.91;;;28.84;21.15
54816;BME280;40715;55.752;37.884;2023-12-04T09:07:18;98403.34;;;28.84;21.11
54816;BME280;40715;55.752;37.884;2023-12-04T09:09:48;98387.25;;;28.83;21.05
54816;BME280;40715;55.752;37.884;2023-12-04T09:12:15;98382.22;;;28.80;20.92
54816;BME280;40715;55.752;37.884;2023-12-04T09:14:42;98383.91;;;28.81;20.86
54816;BME280;40715;55.752;37.884;2023-12-04T09:17:10;98398.28;;;28.81;21.03
54816;BME280;40715;55.752;37.884;2023-12-04T09:19:37;98394.56;;;28.82;20.76
54816;BME280;40715;55.752;37.884;2023-12-04T09:22:04;98391.84;;;28.82;20.95
54816;BME280;40715;55.752;37.884;2023-12-04T09:24:34;98398.97;;;28.83;20.70
54816;BME280;40715;55.752;37.884;2023-12-04T09:27:01;98390.53;;;28.78;20.80
54816;BME280;40715;55.752;37.884;2023-12-04T09:29:28;98393.88;;;28.80;20.71
54816;BME280;40715;55.752;37.884;2023-12-04T09:31:54;98393.25;;;28.78;20.76
54816;BME280;40715;55.752;37.884;2023-12-04T09:34:22;98401.19;;;28.80;20.66
54816;BME280;40715;55.752;37.884;2023-12-04T09:36:49;98403.91;;;28.80;20.61
54816;BME280;40715;55.752;37.884;2023-12-04T09:39:18;98413.03;;;28.79;20.57
54816;BME280;40715;55.752;37.884;2023-12-04T09:41:45;98408.66;;;28.78;20.60
54816;BME280;40715;55.752;37.884;2023-12-04T09:44:13;98414.56;;;28.81;20.38
54816;BME280;40715;55.752;37.884;2023-12-04T09:46:42;98415.75;;;28.79;20.61
54816;BME280;40715;55.752;37.884;2023-12-04T09:49:10;98420.16;;;28.80;20.36
54816;BME280;40715;55.752;37.884;2023-12-04T09:51:37;98430.16;;;28.79;20.32
54816;BME280;40715;55.752;37.884;2023-12-04T09:54:05;98427.97;;;28.74;20.62
54816;BME280;40715;55.752;37.884;2023-12-04T09:56:33;98432.88;;;28.79;20.39
54816;BME280;40715;55.752;37.884;2023-12-04T09:59:00;98425.41;;;28.81;20.43
54816;BME280;40715;55.752;37.884;2023-12-04T10:01:29;98431.84;;;28.80;20.33
54816;BME280;40715;55.752;37.884;2023-12-04T10:03:58;98432.31;;;28.84;20.23
54816;BME280;40715;55.752;37.884;2023-12-04T10:06:28;98441.97;;;28.86;20.28
54816;BME280;40715;55.752;37.884;2023-12-04T10:08:56;98442.63;;;28.88;20.06
54816;BME280;40715;55.752;37.884;2023-12-04T10:11:25;98454.31;;;28.89;20.14
54816;BME280;40715;55.752;37.884;2023-12-04T10:13:54;98454.16;;;28.90;20.10
54816;BME280;40715;55.752;37.884;2023-12-04T10:16:35;98466.97;;;28.97;19.91
54816;BME280;40715;55.752;37.884;2023-12-04T10:19:32;98461.94;;;29.08;19.98
54816;BME280;40715;55.752;37.884;2023-12-04T10:21:59;98454.06;;;28.99;19.88
54816;BME280;40715;55.752;37.884;2023-12-04T10:26:57;98478.72;;;28.89;20.04
54816;BME280;40715;55.752;37.884;2023-12-04T10:29:29;98480.56;;;28.88;19.97
54816;BME280;40715;55.752;37.884;2023-12-04T10:31:59;98476.84;;;28.89;19.88
54816;BME280;40715;55.752;37.884;2023-12-04T10:34:29;98493.47;;;28.86;19.82
54816;BME280;40715;55.752;37.884;2023-12-04T10:36:56;98488.06;;;28.86;19.76
54816;BME280;40715;55.752;37.884;2023-12-04T10:39:25;98496.19;;;28.86;19.68
54816;BME280;40715;55.752;37.884;2023-12-04T10:42:00;98494.66;;;28.84;19.77
54816;BME280;40715;55.752;37.884;2023-12-04T10:44:32;98504.69;;;28.83;19.67
54816;BME280;40715;55.752;37.884;2023-12-04T10:47:00;98512.13;;;28.81;19.56
54816;BME280;40715;55.752;37.884;2023-12-04T10:49:28;98511.13;;;28.82;19.52
54816;BME280;40715;55.752;37.884;2023-12-04T10:51:58;98510.63;;;28.79;19.69
54816;BME280;40715;55.752;37.884;2023-12-04T10:54:27;98513.50;;;28.77;19.66
54816;BME280;40715;55.752;37.884;2023-12-04T10:56:59;98508.09;;;28.77;19.60
54816;BME280;40715;55.752;37.884;2023-12-04T10:59:28;98518.09;;;28.77;19.64
54816;BME280;40715;55.752;37.884;2023-12-04T11:02:01;98513.03;;;28.73;19.51
54816;BME280;40715;55.752;37.884;2023-12-04T11:04:31;98521.00;;;28.75;19.60
54816;BME280;40715;55.752;37.884;2023-12-04T11:06:59;98528.63;;;28.71;19.61
54816;BME280;40715;55.752;37.884;2023-12-04T11:09:35;98532.00;;;28.73;19.56
54816;BME280;40715;55.752;37.884;2023-12-04T11:12:05;98525.72;;;28.73;19.60
54816;BME280;40715;55.752;37.884;2023-12-04T11:14:42;98522.84;;;28.74;19.52
54816;BME280;40715;55.752;37.884;2023-12-04T11:17:11;98534.72;;;28.73;19.52
54816;BME280;40715;55.752;37.884;2023-12-04T11:20:04;98536.84;;;28.86;19.46
54816;BME280;40715;55.752;37.884;2023-12-04T11:22:37;98529.13;;;28.75;19.25
54816;BME280;40715;55.752;37.884;2023-12-04T11:25:08;98524.72;;;28.74;19.31
54816;BME280;40715;55.752;37.884;2023-12-04T11:27:35;98546.38;;;28.74;19.39
54816;BME280;40715;55.752;37.884;2023-12-04T11:30:03;98539.78;;;28.77;19.46
54816;BME280;40715;55.752;37.884;2023-12-04T11:32:31;98535.69;;;28.81;19.24
54816;BME280;40715;55.752;37.884;2023-12-04T11:35:01;98549.25;;;28.81;19.26
54816;BME280;40715;55.752;37.884;2023-12-04T11:37:30;98543.28;;;28.85;19.30
54816;BME280;40715;55.752;37.884;2023-12-04T11:40:02;98543.28;;;28.85;19.09
54816;BME280;40715;55.752;37.884;2023-12-04T11:42:31;98552.25;;;28.86;19.10
54816;BME280;40715;55.752;37.884;2023-12-04T11:44:59;98544.13;;;28.86;19.04
54816;BME280;40715;55.752;37.884;2023-12-04T11:47:28;98550.59;;;28.85;19.23
54816;BME280;40715;55.752;37.884;2023-12-04T11:49:55;98559.38;;;28.87;19.14
54816;BME280;40715;55.752;37.884;2023-12-04T11:52:42;98564.56;;;28.97;19.37
54816;BME280;40715;55.752;37.884;2023-12-04T11:55:09;98563.22;;;28.92;19.13
54816;BME280;40715;55.752;37.884;2023-12-04T11:57:37;98564.31;;;28.83;19.04
54816;BME280;40715;55.752;37.884;2023-12-04T12:00:18;98568.50;;;28.86;18.98
54816;BME280;40715;55.752;37.884;2023-12-04T12:05:38;98576.53;;;28.79;19.09
54816;BME280;40715;55.752;37.884;2023-12-04T12:08:08;98581.09;;;28.79;18.98
54816;BME280;40715;55.752;37.884;2023-12-04T12:10:35;98591.09;;;28.78;19.10
54816;BME280;40715;55.752;37.884;2023-12-04T12:13:03;98592.09;;;28.77;19.02
54816;BME280;40715;55.752;37.884;2023-12-04T12:15:32;98589.75;;;28.74;19.11
54816;BME280;40715;55.752;37.884;2023-12-04T12:18:00;98594.81;;;28.77;18.90
54816;BME280;40715;55.752;37.884;2023-12-04T12:20:27;98596.00;;;28.74;18.98
54816;BME280;40715;55.752;37.884;2023-12-04T12:22:54;98593.84;;;28.70;19.14
54816;BME280;40715;55.752;37.884;2023-12-04T12:25:21;98598.06;;;28.72;19.19
54816;BME280;40715;55.752;37.884;2023-12-04T12:27:50;98607.22;;;28.71;18.93
54816;BME280;40715;55.752;37.884;2023-12-04T12:30:17;98608.41;;;28.69;18.88
54816;BME280;40715;55.752;37.884;2023-12-04T12:32:44;98608.41;;;28.69;18.92
54816;BME280;40715;55.752;37.884;2023-12-04T12:35:11;98606.72;;;28.68;18.95
54816;BME280;40715;55.752;37.884;2023-12-04T12:37:39;98607.75;;;28.67;18.93
54816;BME280;40715;55.752;37.884;2023-12-04T12:40:06;98614.00;;;28.67;18.83
54816;BME280;40715;55.752;37.884;2023-12-04T12:42:37;98615.03;;;28.66;18.89
54816;BME280;40715;55.752;37.884;2023-12-04T12:45:09;98608.94;;;28.64;19.12
54816;BME280;40715;55.752;37.884;2023-12-04T12:47:41;98621.66;;;28.64;19.00
54816;BME280;40715;55.752;37.884;2023-12-04T12:50:09;98619.78;;;28.64;19.03
54816;BME280;40715;55.752;37.884;2023-12-04T12:52:40;98628.59;;;28.66;18.79
54816;BME280;40715;55.752;37.884;2023-12-04T12:55:07;98631.47;;;28.65;18.99
54816;BME280;40715;55.752;37.884;2023-12-04T12:57:35;98623.50;;;28.63;18.87
54816;BME280;40715;55.752;37.884;2023-12-04T13:00:02;98647.56;;;28.66;18.59